createdAt,value
2018-12-10T00:01:21.614Z,1.90
2018-12-10T00:03:49.717Z,1.60
2018-12-10T00:06:17.380Z,1.60
2018-12-10T00:08:45.229Z,1.90
2018-12-10T00:11:12.724Z,1.80
2018-12-10T00:13:40.277Z,1.50
2018-12-10T00:16:07.838Z,1.50
2018-12-10T00:18:35.570Z,1.50
2018-12-10T00:21:03.114Z,1.60
2018-12-10T00:23:30.600Z,1.60
2018-12-10T00:25:58.609Z,1.67
2018-12-10T00:28:26.100Z,1.23
2018-12-10T00:30:53.627Z,1.83
2018-12-10T00:33:21.266Z,1.40
2018-12-10T00:35:49.069Z,1.53
2018-12-10T00:38:16.564Z,1.70
2018-12-10T00:40:44.300Z,1.33
2018-12-10T00:43:11.812Z,1.40
2018-12-10T00:45:39.301Z,1.30
2018-12-10T00:48:06.859Z,1.50
2018-12-10T00:50:34.718Z,1.43
2018-12-10T00:53:02.381Z,1.93
2018-12-10T00:55:30.080Z,1.60
2018-12-10T00:57:57.594Z,1.30
2018-12-10T01:00:25.139Z,1.03
2018-12-10T01:02:52.628Z,0.70
2018-12-10T01:05:20.204Z,0.70
2018-12-10T01:07:47.734Z,0.80
2018-12-10T01:10:15.292Z,0.70
2018-12-10T01:12:42.797Z,0.80
2018-12-10T01:15:10.343Z,1.03
2018-12-10T01:17:37.871Z,1.00
2018-12-10T01:20:05.625Z,1.20
2018-12-10T01:22:33.116Z,1.00
2018-12-10T01:25:01.010Z,1.37
2018-12-10T01:27:28.667Z,1.10
2018-12-10T01:29:56.154Z,1.47
2018-12-10T01:32:24.147Z,1.30
2018-12-10T01:34:51.820Z,1.60
2018-12-10T01:37:19.336Z,1.63
2018-12-10T01:39:47.073Z,1.40
2018-12-10T01:42:14.618Z,1.47
2018-12-10T01:44:42.168Z,1.47
2018-12-10T01:47:09.651Z,1.70
2018-12-10T01:49:37.276Z,1.67
2018-12-10T01:52:04.821Z,1.57
2018-12-10T01:54:32.719Z,1.63
2018-12-10T01:57:00.202Z,1.73
2018-12-10T01:59:27.743Z,1.63
2018-12-10T02:01:55.300Z,1.80
2018-12-10T02:04:23.066Z,1.87
2018-12-10T02:06:50.614Z,1.50
2018-12-10T02:09:18.150Z,1.67
2018-12-10T02:11:45.708Z,1.93
2018-12-10T02:14:13.199Z,1.80
2018-12-10T02:16:41.804Z,1.87
2018-12-10T02:19:09.843Z,1.80
2018-12-10T02:21:37.336Z,2.10
2018-12-10T02:24:05.009Z,2.00
2018-12-10T02:26:32.855Z,2.30
2018-12-10T02:29:06.196Z,1.87
2018-12-10T02:31:34.123Z,2.03
2018-12-10T02:34:01.684Z,1.97
2018-12-10T02:36:29.483Z,1.73
2018-12-10T02:38:56.973Z,1.60
2018-12-10T02:41:24.475Z,1.70
2018-12-10T02:43:52.205Z,2.20
2018-12-10T02:48:45.372Z,2.27
2018-12-10T02:51:13.202Z,2.00
2018-12-10T02:53:40.741Z,1.80
2018-12-10T02:56:08.504Z,2.00
2018-12-10T02:58:36.028Z,1.80
2018-12-10T03:01:03.564Z,1.57
2018-12-10T03:03:31.258Z,1.80
2018-12-10T03:05:59.360Z,2.20
2018-12-10T03:08:26.937Z,2.00
2018-12-10T03:10:54.472Z,2.20
2018-12-10T03:13:22.110Z,2.07
2018-12-10T03:15:49.634Z,1.80
2018-12-10T03:18:17.209Z,1.80
2018-12-10T03:20:45.114Z,1.87
2018-12-10T03:25:36.188Z,1.90
2018-12-10T03:28:03.683Z,1.90
2018-12-10T03:30:31.687Z,2.03
2018-12-10T03:32:59.393Z,2.13
2018-12-10T03:35:27.052Z,2.07
2018-12-10T03:37:54.528Z,2.20
2018-12-10T03:40:22.263Z,2.10
2018-12-10T03:42:49.748Z,1.90
2018-12-10T03:45:17.245Z,2.07
2018-12-10T03:47:44.777Z,2.10
2018-12-10T03:50:12.488Z,2.20
2018-12-10T03:52:40.898Z,1.80
2018-12-10T03:55:08.614Z,2.10
2018-12-10T03:57:36.435Z,2.17
2018-12-10T04:00:03.974Z,2.20
2018-12-10T04:02:31.474Z,2.03
2018-12-10T04:04:59.158Z,2.07
2018-12-10T04:07:26.652Z,1.90
2018-12-10T04:09:54.140Z,1.90
2018-12-10T04:12:21.648Z,2.07
2018-12-10T04:14:49.136Z,1.63
2018-12-10T04:17:16.893Z,1.90
2018-12-10T04:19:44.781Z,1.80
2018-12-10T04:22:12.298Z,1.60
2018-12-10T04:24:39.918Z,2.00
2018-12-10T04:27:07.399Z,1.53
2018-12-10T04:29:34.884Z,1.87
2018-12-10T04:32:02.823Z,1.60
2018-12-10T04:34:30.871Z,1.83
2018-12-10T04:36:58.360Z,1.60
2018-12-10T04:39:26.072Z,1.87
2018-12-10T04:41:53.571Z,1.60
2018-12-10T04:44:21.052Z,1.43
2018-12-10T04:46:49.050Z,1.47
2018-12-10T04:49:16.819Z,1.60
2018-12-10T04:51:44.322Z,1.70
2018-12-10T04:54:12.470Z,1.33
2018-12-10T04:56:39.968Z,1.30
2018-12-10T04:59:07.464Z,1.30
2018-12-10T05:01:35.018Z,1.60
2018-12-10T05:04:02.798Z,1.30
2018-12-10T05:06:30.444Z,1.77
2018-12-10T05:08:57.926Z,1.37
2018-12-10T05:11:25.902Z,1.40
2018-12-10T05:13:53.438Z,1.40
2018-12-10T05:16:20.959Z,1.53
2018-12-10T05:18:48.861Z,1.47
2018-12-10T05:21:16.350Z,1.30
2018-12-10T05:23:44.259Z,1.27
2018-12-10T05:26:11.779Z,1.30
2018-12-10T05:28:39.280Z,1.20
2018-12-10T05:31:06.848Z,0.90
2018-12-10T05:33:34.415Z,1.00
2018-12-10T05:36:02.249Z,1.00
2018-12-10T05:38:29.803Z,1.00
2018-12-10T05:40:57.532Z,0.93
2018-12-10T05:43:25.420Z,0.73
2018-12-10T05:45:52.916Z,0.93
2018-12-10T05:48:20.413Z,1.03
2018-12-10T05:50:48.041Z,0.97
2018-12-10T05:53:15.573Z,1.40
2018-12-10T05:55:43.216Z,1.00
2018-12-10T05:58:10.753Z,1.00
2018-12-10T06:00:38.452Z,1.13
2018-12-10T06:03:05.961Z,1.30
2018-12-10T06:05:33.681Z,1.00
2018-12-10T06:08:01.170Z,1.00
2018-12-10T06:10:28.825Z,1.00
2018-12-10T06:12:56.309Z,1.00
2018-12-10T06:15:23.795Z,1.10
2018-12-10T06:17:51.512Z,1.10
2018-12-10T06:20:19.360Z,1.30
2018-12-10T06:22:46.894Z,1.10
2018-12-10T06:25:14.761Z,0.90
2018-12-10T06:27:42.300Z,1.30
2018-12-10T06:30:09.841Z,0.93
2018-12-10T06:32:37.806Z,1.13
2018-12-10T06:35:05.506Z,1.37
2018-12-10T06:37:37.552Z,1.30
2018-12-10T06:40:03.544Z,1.13
2018-12-10T06:42:31.081Z,1.63
2018-12-10T06:44:58.572Z,1.30
2018-12-10T06:47:26.078Z,1.17
2018-12-10T06:49:53.727Z,1.30
2018-12-10T06:52:21.206Z,1.27
2018-12-10T06:54:48.976Z,1.43
2018-12-10T06:57:16.466Z,1.50
2018-12-10T06:59:44.463Z,1.40
2018-12-10T07:02:12.245Z,1.50
2018-12-10T07:04:40.029Z,1.70
2018-12-10T07:07:07.587Z,1.50
2018-12-10T07:09:35.317Z,1.70
2018-12-10T07:12:02.912Z,1.77
2018-12-10T07:14:30.703Z,1.80
2018-12-10T07:16:58.190Z,2.23
2018-12-10T07:19:25.856Z,2.60
2018-12-10T07:21:53.357Z,1.60
2018-12-10T07:24:21.085Z,1.90
2018-12-10T07:26:49.701Z,1.90
2018-12-10T07:29:17.241Z,2.10
2018-12-10T07:31:45.110Z,1.83
2018-12-10T07:34:13.059Z,1.90
2018-12-10T07:36:40.595Z,1.70
2018-12-10T07:39:08.338Z,1.57
2018-12-10T07:41:35.844Z,1.97
2018-12-10T07:44:03.479Z,1.80
2018-12-10T07:46:31.242Z,1.80
2018-12-10T07:48:58.757Z,2.00
2018-12-10T07:51:26.663Z,1.50
2018-12-10T07:53:54.144Z,1.90
2018-12-10T07:56:28.860Z,1.70
2018-12-10T07:58:51.291Z,2.00
2018-12-10T08:01:18.807Z,1.90
2018-12-10T08:03:46.804Z,1.77
2018-12-10T08:06:14.774Z,1.97
2018-12-10T08:08:42.274Z,1.80
2018-12-10T08:11:09.904Z,1.70
2018-12-10T08:13:37.467Z,1.60
2018-12-10T08:16:05.013Z,1.80
2018-12-10T08:18:32.887Z,1.70
2018-12-10T08:21:02.458Z,2.27
2018-12-10T08:23:29.998Z,2.00
2018-12-10T08:25:57.792Z,2.07
2018-12-10T08:28:25.372Z,1.83
2018-12-10T08:30:52.897Z,1.60
2018-12-10T08:33:22.084Z,1.60
2018-12-10T08:35:50.209Z,1.67
2018-12-10T08:38:17.739Z,1.73
2018-12-10T08:40:45.866Z,1.73
2018-12-10T08:43:13.606Z,1.67
2018-12-10T08:45:41.128Z,1.90
2018-12-10T08:48:08.634Z,1.60
2018-12-10T08:50:36.602Z,1.70
2018-12-10T08:53:04.158Z,1.73
2018-12-10T08:55:32.257Z,2.13
2018-12-10T08:57:59.800Z,1.50
2018-12-10T09:00:27.595Z,1.50
2018-12-10T09:02:55.868Z,1.67
2018-12-10T09:05:23.899Z,1.90
2018-12-10T09:07:51.410Z,1.53
2018-12-10T09:10:18.984Z,1.90
2018-12-10T09:12:47.199Z,1.83
2018-12-10T09:15:15.597Z,1.90
2018-12-10T09:17:43.110Z,1.90
2018-12-10T09:20:10.916Z,1.67
2018-12-10T09:22:38.416Z,1.60
2018-12-10T09:25:06.237Z,1.90
2018-12-10T09:27:33.752Z,1.50
2018-12-10T09:30:01.289Z,1.70
2018-12-10T09:32:29.368Z,1.50
2018-12-10T09:34:57.493Z,1.90
2018-12-10T09:37:25.291Z,1.60
2018-12-10T09:39:56.126Z,1.50
2018-12-10T09:42:23.619Z,2.00
2018-12-10T09:44:51.130Z,1.33
2018-12-10T09:47:19.021Z,1.93
2018-12-10T09:49:47.014Z,1.60
2018-12-10T09:52:14.595Z,1.80
2018-12-10T09:54:42.767Z,1.63
2018-12-10T09:57:10.555Z,1.70
2018-12-10T09:59:38.067Z,1.57
2018-12-10T10:02:12.272Z,1.50
2018-12-10T10:04:36.075Z,1.60
2018-12-10T10:07:03.639Z,1.63
2018-12-10T10:09:31.261Z,2.10
2018-12-10T10:11:58.758Z,1.50
2018-12-10T10:14:26.277Z,1.50
2018-12-10T10:16:53.768Z,1.50
2018-12-10T10:19:21.431Z,2.03
2018-12-10T10:21:48.961Z,1.80
2018-12-10T10:24:16.833Z,1.90
2018-12-10T10:26:44.569Z,1.73
2018-12-10T10:29:12.115Z,1.80
2018-12-10T10:31:39.855Z,1.40
2018-12-10T10:34:07.346Z,1.80
2018-12-10T10:36:35.041Z,1.93
2018-12-10T10:39:03.183Z,1.83
2018-12-10T10:41:31.641Z,1.63
2018-12-10T10:43:59.199Z,1.70
2018-12-10T10:46:26.695Z,1.33
2018-12-10T10:48:54.269Z,1.97
2018-12-10T10:51:21.849Z,1.50
2018-12-10T10:53:49.818Z,2.00
2018-12-10T10:56:17.317Z,1.47
2018-12-10T10:58:44.811Z,1.80
2018-12-10T11:01:18.175Z,1.27
2018-12-10T11:03:45.949Z,1.37
2018-12-10T11:06:13.454Z,1.50
2018-12-10T11:08:40.963Z,1.20
2018-12-10T11:11:08.499Z,1.80
2018-12-10T11:13:35.998Z,1.67
2018-12-10T11:16:03.551Z,1.40
2018-12-10T11:18:31.622Z,1.83
2018-12-10T11:20:59.460Z,1.70
2018-12-10T11:23:26.966Z,1.50
2018-12-10T11:25:54.763Z,1.70
2018-12-10T11:28:22.284Z,1.57
2018-12-10T11:30:49.817Z,1.50
2018-12-10T11:33:17.741Z,1.23
2018-12-10T11:35:45.898Z,1.60
2018-12-10T11:38:14.119Z,1.57
2018-12-10T11:40:42.128Z,1.60
2018-12-10T11:43:09.661Z,1.47
2018-12-10T11:45:37.130Z,1.83
2018-12-10T11:48:05.313Z,1.60
2018-12-10T11:53:06.957Z,1.20
2018-12-10T11:55:34.550Z,1.20
2018-12-10T11:58:02.092Z,1.43
2018-12-10T12:00:29.747Z,1.60
2018-12-10T12:02:57.338Z,1.20
2018-12-10T12:05:25.490Z,1.40
2018-12-10T12:07:53.020Z,1.20
2018-12-10T12:10:20.549Z,1.23
2018-12-10T12:12:48.120Z,1.30
2018-12-10T12:15:15.617Z,1.10
2018-12-10T12:17:43.416Z,1.10
2018-12-10T12:20:11.181Z,0.90
2018-12-10T12:22:38.945Z,1.10
2018-12-10T12:25:06.486Z,1.03
2018-12-10T12:27:34.077Z,1.10
2018-12-10T12:30:02.421Z,1.30
2018-12-10T12:32:30.100Z,1.40
2018-12-10T12:34:58.139Z,0.97
2018-12-10T12:37:25.728Z,0.83
2018-12-10T12:39:53.544Z,1.40
2018-12-10T12:42:21.042Z,1.27
2018-12-10T12:44:48.528Z,1.27
2018-12-10T12:47:16.037Z,1.40
2018-12-10T12:49:43.660Z,1.50
2018-12-10T12:52:11.171Z,1.70
2018-12-10T12:54:38.728Z,1.60
2018-12-10T12:57:06.220Z,1.30
2018-12-10T12:59:33.717Z,1.30
2018-12-10T13:02:01.205Z,1.70
2018-12-10T13:04:30.864Z,1.30
2018-12-10T13:06:58.346Z,1.40
2018-12-10T13:09:25.841Z,1.47
2018-12-10T13:11:54.031Z,1.80
2018-12-10T13:14:21.556Z,1.70
2018-12-10T13:16:49.655Z,1.90
2018-12-10T13:19:18.730Z,1.80
2018-12-10T13:21:46.352Z,1.57
2018-12-10T13:24:13.833Z,1.90
2018-12-10T13:26:41.999Z,1.77
2018-12-10T13:29:09.697Z,1.80
2018-12-10T13:31:37.268Z,1.80
2018-12-10T13:34:04.899Z,1.80
2018-12-10T13:36:32.840Z,1.90
2018-12-10T13:39:00.843Z,2.47
2018-12-10T13:41:28.325Z,2.20
2018-12-10T13:43:55.812Z,2.43
2018-12-10T13:46:23.353Z,2.30
2018-12-10T13:48:50.840Z,2.30
2018-12-10T13:51:18.548Z,2.00
2018-12-10T13:56:12.726Z,2.43
2018-12-10T13:58:40.398Z,2.70
2018-12-10T14:01:07.968Z,2.60
2018-12-10T14:03:35.873Z,2.50
2018-12-10T14:06:03.410Z,1.93
2018-12-10T14:08:30.966Z,1.80
2018-12-10T14:10:58.464Z,2.03
2018-12-10T14:13:26.173Z,1.60
2018-12-10T14:15:53.665Z,1.73
2018-12-10T14:18:21.169Z,1.60
2018-12-10T14:20:49.138Z,1.90
2018-12-10T14:23:16.668Z,1.70
2018-12-10T14:25:44.197Z,1.90
2018-12-10T14:28:11.755Z,1.83
2018-12-10T14:30:39.298Z,1.90
2018-12-10T14:33:07.134Z,1.83
2018-12-10T14:35:34.800Z,2.23
2018-12-10T14:38:03.166Z,2.13
2018-12-10T14:40:31.102Z,2.20
2018-12-10T14:42:58.651Z,1.90
2018-12-10T14:47:49.626Z,2.23
2018-12-10T14:50:17.547Z,2.03
2018-12-10T14:52:45.051Z,1.60
2018-12-10T14:55:12.559Z,1.80
2018-12-10T14:57:40.108Z,2.20
2018-12-10T15:00:07.911Z,1.80
2018-12-10T15:02:35.430Z,1.87
2018-12-10T15:05:04.192Z,2.13
2018-12-10T15:07:31.766Z,2.40
2018-12-10T15:09:59.296Z,1.83
2018-12-10T15:12:26.822Z,2.60
2018-12-10T15:14:54.516Z,2.53
2018-12-10T15:17:22.034Z,2.13
2018-12-10T15:19:49.747Z,2.40
2018-12-10T15:22:17.260Z,2.23
2018-12-10T15:24:44.756Z,2.43
2018-12-10T15:27:12.317Z,2.20
2018-12-10T15:29:39.821Z,2.80
2018-12-10T15:32:07.683Z,2.67
2018-12-10T15:34:35.723Z,2.33
2018-12-10T15:37:03.426Z,2.60
2018-12-10T15:39:31.083Z,2.77
2018-12-10T15:41:58.914Z,2.87
2018-12-10T15:44:26.602Z,2.57
2018-12-10T15:46:54.954Z,2.33
2018-12-10T15:49:22.814Z,2.40
2018-12-10T15:51:50.323Z,2.67
2018-12-10T15:54:17.857Z,3.00
2018-12-10T15:56:45.448Z,2.40
2018-12-10T15:59:12.959Z,2.43
2018-12-10T16:01:40.572Z,2.73
2018-12-10T16:04:08.424Z,2.90
2018-12-10T16:06:36.011Z,3.20
2018-12-10T16:09:05.350Z,2.50
2018-12-10T16:11:33.444Z,2.80
2018-12-10T16:14:01.030Z,3.00
2018-12-10T16:16:28.683Z,3.33
2018-12-10T16:18:56.980Z,2.70
2018-12-10T16:21:24.489Z,3.50
2018-12-10T16:23:52.047Z,3.10
2018-12-10T16:26:19.583Z,3.10
2018-12-10T16:28:47.078Z,3.63
2018-12-10T16:31:14.565Z,3.60
2018-12-10T16:33:42.473Z,3.00
2018-12-10T16:36:10.789Z,3.13
2018-12-10T16:38:38.758Z,3.17
2018-12-10T16:41:06.809Z,3.00
2018-12-10T16:43:34.298Z,3.33
2018-12-10T16:46:01.804Z,3.17
2018-12-10T16:48:29.312Z,3.00
2018-12-10T16:50:57.277Z,3.30
2018-12-10T16:53:24.769Z,3.00
2018-12-10T16:55:52.269Z,3.40
2018-12-10T16:58:19.847Z,3.00
2018-12-10T17:00:47.329Z,2.93
2018-12-10T17:03:14.860Z,5.27
2018-12-10T17:05:42.660Z,3.00
2018-12-10T17:08:10.230Z,2.93
2018-12-10T17:10:37.756Z,2.60
2018-12-10T17:13:05.602Z,3.60
2018-12-10T17:15:33.135Z,3.30
2018-12-10T17:18:00.667Z,3.23
2018-12-10T17:20:28.481Z,3.47
2018-12-10T17:22:56.000Z,3.50
2018-12-10T17:25:23.527Z,3.23
2018-12-10T17:27:51.091Z,3.40
2018-12-10T17:30:19.305Z,3.30
2018-12-10T17:32:47.308Z,3.40
2018-12-10T17:35:15.223Z,3.83
2018-12-10T17:37:42.967Z,3.80
2018-12-10T17:40:10.813Z,3.40
2018-12-10T17:42:38.303Z,3.53
2018-12-10T17:45:06.649Z,3.97
2018-12-10T17:47:34.528Z,4.10
2018-12-10T17:50:02.343Z,4.30
2018-12-10T17:52:29.840Z,4.10
2018-12-10T17:54:57.348Z,3.93
2018-12-10T17:57:24.903Z,3.80
2018-12-10T17:59:52.406Z,3.47
2018-12-10T18:02:20.277Z,4.17
2018-12-10T18:04:49.285Z,3.70
2018-12-10T18:07:16.786Z,3.70
2018-12-10T18:09:44.307Z,3.70
2018-12-10T18:12:13.082Z,3.60
2018-12-10T18:14:40.694Z,3.50
2018-12-10T18:17:08.267Z,3.70
2018-12-10T18:19:36.068Z,4.23
2018-12-10T18:22:04.097Z,4.10
2018-12-10T18:24:31.800Z,4.33
2018-12-10T18:26:59.347Z,4.43
2018-12-10T18:29:26.868Z,4.80
2018-12-10T18:31:54.713Z,4.67
2018-12-10T18:34:22.453Z,4.60
2018-12-10T18:36:49.961Z,4.60
2018-12-10T18:39:17.837Z,4.40
2018-12-10T18:41:45.326Z,4.30
2018-12-10T18:44:12.839Z,4.57
2018-12-10T18:46:40.423Z,3.53
2018-12-10T18:49:08.305Z,2.90
2018-12-10T18:51:36.086Z,3.10
2018-12-10T18:54:03.629Z,2.20
2018-12-10T18:56:31.296Z,1.80
2018-12-10T18:58:58.794Z,1.30
2018-12-10T19:01:26.229Z,0.70
2018-12-10T19:03:54.160Z,0.80
2018-12-10T19:06:21.587Z,0.40
2018-12-10T19:08:49.467Z,0.70
2018-12-10T19:11:17.482Z,0.90
2018-12-10T19:13:49.846Z,0.90
2018-12-10T19:16:14.478Z,1.00
2018-12-10T19:18:42.400Z,1.10
2018-12-10T19:21:09.896Z,1.00
2018-12-10T19:23:37.364Z,1.40
2018-12-10T19:26:05.090Z,1.20
2018-12-10T19:28:32.522Z,1.20
2018-12-10T19:31:00.020Z,1.20
2018-12-10T19:33:27.968Z,1.50
2018-12-10T19:35:55.678Z,1.10
2018-12-10T19:38:23.590Z,1.50
2018-12-10T19:40:51.308Z,1.30
2018-12-10T19:43:18.824Z,1.70
2018-12-10T19:45:46.483Z,2.13
2018-12-10T19:48:13.945Z,1.93
2018-12-10T19:50:41.606Z,1.70
2018-12-10T19:53:09.093Z,1.70
2018-12-10T19:55:36.611Z,1.93
2018-12-10T19:58:04.139Z,2.30
2018-12-10T20:00:31.794Z,2.00
2018-12-10T20:03:04.860Z,2.13
2018-12-10T20:05:35.564Z,2.10
2018-12-10T20:08:03.389Z,2.10
2018-12-10T20:10:31.277Z,1.90
2018-12-10T20:12:58.709Z,2.37
2018-12-10T20:15:26.157Z,2.53
2018-12-10T20:17:53.610Z,2.73
2018-12-10T20:20:21.223Z,2.40
2018-12-10T20:22:48.707Z,2.50
2018-12-10T20:25:16.510Z,3.20
2018-12-10T20:27:44.088Z,3.23
2018-12-10T20:30:11.897Z,3.50
2018-12-10T20:32:39.669Z,2.90
2018-12-10T20:35:07.407Z,3.47
2018-12-10T20:37:34.949Z,3.70
2018-12-10T20:40:03.117Z,3.50
2018-12-10T20:42:30.646Z,3.33
2018-12-10T20:44:58.085Z,3.33
2018-12-10T20:47:25.572Z,4.10
2018-12-10T20:49:53.251Z,3.70
2018-12-10T20:52:20.684Z,3.53
2018-12-10T20:54:48.121Z,3.63
2018-12-10T20:57:16.042Z,3.87
2018-12-10T20:59:43.481Z,3.80
2018-12-10T21:02:10.914Z,4.37
2018-12-10T21:04:38.739Z,4.57
2018-12-10T21:07:06.173Z,4.33
2018-12-10T21:09:33.616Z,5.00
2018-12-10T21:12:01.341Z,5.10
2018-12-10T21:14:28.782Z,5.20
2018-12-10T21:16:56.267Z,5.03
2018-12-10T21:19:24.440Z,6.87
2018-12-10T21:21:51.923Z,5.97
2018-12-10T21:24:19.803Z,5.70
2018-12-10T21:26:47.658Z,5.47
2018-12-10T21:29:15.099Z,5.80
2018-12-10T21:31:43.054Z,5.90
2018-12-10T21:34:10.648Z,5.40
2018-12-10T21:36:38.141Z,5.07
2018-12-10T21:39:07.047Z,5.07
2018-12-10T21:41:34.555Z,5.23
2018-12-10T21:44:02.413Z,5.40
2018-12-10T21:46:29.895Z,5.37
2018-12-10T21:48:57.329Z,5.37
2018-12-10T21:51:24.869Z,5.20
2018-12-10T21:53:52.313Z,6.30
2018-12-10T21:56:19.808Z,6.03
2018-12-10T22:01:20.569Z,6.23
2018-12-10T22:03:48.158Z,6.23
2018-12-10T22:06:15.588Z,6.53
2018-12-10T22:08:43.077Z,6.60
2018-12-10T22:11:10.800Z,6.00
2018-12-10T22:13:38.233Z,5.97
2018-12-10T22:16:05.715Z,5.90
2018-12-10T22:18:33.510Z,6.67
2018-12-10T22:21:01.425Z,5.90
2018-12-10T22:23:28.906Z,5.90
2018-12-10T22:25:56.345Z,6.10
2018-12-10T22:28:24.005Z,5.97
2018-12-10T22:30:51.861Z,5.10
2018-12-10T22:33:19.539Z,6.00
2018-12-10T22:35:47.312Z,5.57
2018-12-10T22:38:14.785Z,4.90
2018-12-10T22:40:42.755Z,5.20
2018-12-10T22:43:10.236Z,4.60
2018-12-10T22:45:37.672Z,5.20
2018-12-10T22:48:05.182Z,4.37
2018-12-10T22:50:32.783Z,4.80
2018-12-10T22:53:00.358Z,3.70
2018-12-10T22:55:27.822Z,3.60
2018-12-10T22:57:55.277Z,3.70
2018-12-10T23:00:25.071Z,4.20
2018-12-10T23:02:52.593Z,3.73
2018-12-10T23:05:21.852Z,4.10
2018-12-10T23:07:49.281Z,4.33
2018-12-10T23:10:16.714Z,4.23
2018-12-10T23:12:44.445Z,3.80
2018-12-10T23:15:11.877Z,4.13
2018-12-10T23:17:39.337Z,4.27
2018-12-10T23:20:07.169Z,4.23
2018-12-10T23:22:34.608Z,4.50
2018-12-10T23:25:02.237Z,3.93
2018-12-10T23:27:29.912Z,4.20
2018-12-10T23:29:57.560Z,4.43
2018-12-10T23:32:25.385Z,4.07
2018-12-10T23:34:53.098Z,3.87
2018-12-10T23:37:20.519Z,4.47
2018-12-10T23:39:48.213Z,3.67
2018-12-10T23:42:15.669Z,3.87
2018-12-10T23:44:48.694Z,3.30
2018-12-10T23:47:16.448Z,3.57
2018-12-10T23:49:44.254Z,3.80
2018-12-10T23:52:11.723Z,4.13
2018-12-10T23:54:39.153Z,3.27
2018-12-10T23:57:06.623Z,3.07
2018-12-10T23:59:34.358Z,3.00
